Dew Point Data


Current

Temp 76.0 F. Dew Point 71.1 F.


Dew Point Comfort Scale

dewpoints

Date, Time Temperature Dew Point
Wed Aug 29 00:08:04 2018 74.0 F. 71.1 F.
Wed Aug 29 01:08:04 2018 75.0 F. 72.0 F.
Wed Aug 29 02:08:05 2018 75.0 F. 72.0 F.
Wed Aug 29 03:08:04 2018 76.0 F. 72.0 F.
Wed Aug 29 04:08:05 2018 73.0 F. 71.1 F.
Wed Aug 29 05:08:05 2018 74.0 F. 72.0 F.
Wed Aug 29 06:08:04 2018 74.0 F. 72.0 F.
Wed Aug 29 07:08:05 2018 75.0 F. 73.0 F.
Wed Aug 29 08:08:04 2018 76.0 F. 73.9 F.
Wed Aug 29 09:08:05 2018 75.0 F. 73.9 F.
Wed Aug 29 10:08:05 2018 72.0 F. 71.1 F.
Wed Aug 29 11:08:05 2018 75.0 F. 73.0 F.
Wed Aug 29 12:08:05 2018 77.0 F. 73.9 F.
Wed Aug 29 13:08:05 2018 80.0 F. 75.9 F.
Wed Aug 29 14:08:05 2018 81.0 F. 73.9 F.
Wed Aug 29 15:08:05 2018 77.0 F. 69.1 F.
Wed Aug 29 16:08:05 2018 78.0 F. 69.1 F.
Wed Aug 29 17:08:07 2018 77.0 F. 70.0 F.
Wed Aug 29 18:08:05 2018 76.0 F. 70.0 F.
Wed Aug 29 19:08:05 2018 75.0 F. 69.1 F.
Wed Aug 29 20:08:04 2018 72.0 F. 68.0 F.
Wed Aug 29 21:08:05 2018 70.0 F. 68.0 F.
Wed Aug 29 22:08:05 2018 69.0 F. 68.0 F.
Wed Aug 29 23:08:05 2018 69.0 F. 68.0 F.
Thu Aug 30 00:08:04 2018 69.0 F. 68.0 F.
Thu Aug 30 01:08:06 2018 67.0 F. 66.0 F.
Thu Aug 30 02:08:05 2018 66.0 F. 66.0 F.
Thu Aug 30 03:08:05 2018 66.0 F. 66.0 F.
Thu Aug 30 04:08:04 2018 65.0 F. 64.9 F.
Thu Aug 30 05:08:05 2018 65.0 F. 64.9 F.
Thu Aug 30 06:08:04 2018 64.0 F. 64.0 F.
Thu Aug 30 07:08:05 2018 66.0 F. 66.0 F.
Thu Aug 30 08:08:05 2018 68.0 F. 68.0 F.
Thu Aug 30 09:08:05 2018 70.0 F. 70.0 F.
Thu Aug 30 10:08:05 2018 77.0 F. 71.1 F.
Thu Aug 30 11:08:05 2018 79.0 F. 71.1 F.
Thu Aug 30 12:08:05 2018 81.0 F. 71.1 F.
Thu Aug 30 13:08:05 2018 84.0 F. 71.1 F.
Thu Aug 30 14:08:04 2018 85.0 F. 71.1 F.
Thu Aug 30 15:08:05 2018 85.0 F. 70.0 F.
Thu Aug 30 16:08:05 2018 85.0 F. 72.0 F.
Thu Aug 30 17:08:06 2018 82.0 F. 72.0 F.
Thu Aug 30 18:08:04 2018 81.0 F. 71.1 F.
Thu Aug 30 19:08:05 2018 78.0 F. 71.1 F.
Thu Aug 30 20:08:05 2018 74.0 F. 72.0 F.
Thu Aug 30 21:08:05 2018 73.0 F. 70.0 F.
Thu Aug 30 22:08:05 2018 73.0 F. 70.0 F.
Thu Aug 30 23:08:04 2018 72.0 F. 70.0 F.
Fri Aug 31 00:08:05 2018 72.0 F. 69.1 F.
Fri Aug 31 01:08:05 2018 71.0 F. 69.1 F.
Fri Aug 31 02:08:04 2018 71.0 F. 69.1 F.
Fri Aug 31 03:08:39 2018
Fri Aug 31 04:08:04 2018 70.0 F. 69.1 F.
Fri Aug 31 05:08:05 2018 70.0 F. 69.1 F.
Fri Aug 31 06:08:04 2018 71.0 F. 70.0 F.
Fri Aug 31 07:08:05 2018 70.0 F. 70.0 F.
Fri Aug 31 08:08:05 2018 71.0 F. 70.0 F.
Fri Aug 31 09:08:04 2018 73.0 F. 72.0 F.
Fri Aug 31 10:08:05 2018 77.0 F. 72.0 F.
Fri Aug 31 11:08:05 2018 77.0 F. 72.0 F.
Fri Aug 31 12:08:05 2018 77.0 F. 71.1 F.
Fri Aug 31 13:08:04 2018 80.0 F. 72.0 F.
Fri Aug 31 14:08:05 2018 82.0 F. 73.9 F.
Fri Aug 31 15:08:05 2018 84.0 F. 73.9 F.
Fri Aug 31 16:08:04 2018 84.0 F. 72.0 F.
Fri Aug 31 17:08:04 2018 85.0 F. 73.9 F.
Fri Aug 31 18:08:05 2018 83.0 F. 75.0 F.
Fri Aug 31 19:08:05 2018 82.0 F. 73.9 F.
Fri Aug 31 20:08:05 2018 78.0 F. 73.9 F.
Fri Aug 31 21:08:05 2018 76.0 F. 73.9 F.
Fri Aug 31 22:08:05 2018 76.0 F. 73.0 F.
Fri Aug 31 23:08:04 2018 73.0 F. 72.0 F.
Sat Sep 1 00:08:05 2018 75.0 F. 71.1 F.
Sat Sep 1 01:08:05 2018 72.0 F. 70.0 F.
Sat Sep 1 02:08:04 2018 72.0 F. 70.0 F.
Sat Sep 1 03:08:05 2018 72.0 F. 70.0 F.
Sat Sep 1 04:08:05 2018 71.0 F. 70.0 F.
Sat Sep 1 05:08:05 2018 69.0 F. 69.1 F.
Sat Sep 1 06:08:04 2018 71.0 F. 70.0 F.
Sat Sep 1 07:08:04 2018 71.0 F. 69.1 F.
Sat Sep 1 08:08:05 2018 71.0 F. 69.1 F.
Sat Sep 1 09:08:05 2018 77.0 F. 72.0 F.
Sat Sep 1 10:08:05 2018 79.0 F. 73.0 F.
Sat Sep 1 11:08:04 2018 80.0 F. 73.0 F.
Sat Sep 1 12:08:05 2018 82.0 F. 73.9 F.
Sat Sep 1 13:08:05 2018 84.0 F. 73.9 F.
Sat Sep 1 14:08:05 2018 86.0 F. 73.9 F.
Sat Sep 1 15:08:06 2018 86.0 F. 73.9 F.
Sat Sep 1 16:08:04 2018 87.0 F. 73.0 F.
Sat Sep 1 17:08:04 2018 85.0 F. 73.0 F.
Sat Sep 1 18:08:05 2018 84.0 F. 72.0 F.
Sat Sep 1 19:08:04 2018 81.0 F. 72.0 F.
Sat Sep 1 20:08:04 2018 76.0 F. 72.0 F.
Sat Sep 1 21:08:05 2018 74.0 F. 71.1 F.
Sat Sep 1 22:08:05 2018 73.0 F. 70.0 F.
Sat Sep 1 23:08:04 2018 73.0 F. 71.1 F.
Sun Sep 2 00:08:04 2018 74.0 F. 70.0 F.
Sun Sep 2 01:08:04 2018 73.0 F. 70.0 F.
Sun Sep 2 02:08:05 2018 70.0 F. 69.1 F.
Sun Sep 2 03:08:05 2018 70.0 F. 69.1 F.
Sun Sep 2 04:08:05 2018 70.0 F. 69.1 F.
Sun Sep 2 05:08:05 2018 69.0 F. 68.0 F.
Sun Sep 2 06:08:04 2018 70.0 F. 69.1 F.
Sun Sep 2 07:08:05 2018 72.0 F. 70.0 F.
Sun Sep 2 08:08:05 2018 73.0 F. 71.1 F.
Sun Sep 2 09:08:40 2018
Sun Sep 2 10:08:05 2018 80.0 F. 73.0 F.
Sun Sep 2 11:08:04 2018 83.0 F. 73.0 F.
Sun Sep 2 12:08:04 2018 86.0 F. 73.9 F.
Sun Sep 2 13:08:05 2018 85.0 F. 73.0 F.
Sun Sep 2 14:08:04 2018 87.0 F. 73.0 F.
Sun Sep 2 15:08:04 2018 88.0 F. 73.0 F.
Sun Sep 2 16:08:04 2018 88.0 F. 72.0 F.
Sun Sep 2 17:08:05 2018 88.0 F. 73.0 F.
Sun Sep 2 18:08:05 2018 87.0 F. 72.0 F.
Sun Sep 2 19:08:05 2018 84.0 F. 73.9 F.
Sun Sep 2 20:08:05 2018 78.0 F. 75.0 F.
Sun Sep 2 21:08:05 2018 76.0 F. 73.9 F.
Sun Sep 2 22:08:05 2018 74.0 F. 73.0 F.
Sun Sep 2 23:08:05 2018 74.0 F. 72.0 F.
Mon Sep 3 00:08:05 2018 73.0 F. 72.0 F.
Mon Sep 3 01:08:04 2018 73.0 F. 73.0 F.
Mon Sep 3 02:08:05 2018 72.0 F. 72.0 F.
Mon Sep 3 03:08:05 2018 72.0 F. 71.1 F.
Mon Sep 3 04:08:05 2018 71.0 F. 71.1 F.
Mon Sep 3 05:08:05 2018 71.0 F. 70.0 F.
Mon Sep 3 06:08:04 2018 70.0 F. 69.1 F.
Mon Sep 3 07:08:05 2018 70.0 F. 69.1 F.
Mon Sep 3 08:08:04 2018 76.0 F. 73.0 F.
Mon Sep 3 09:08:05 2018 80.0 F. 73.0 F.
Mon Sep 3 10:08:05 2018 83.0 F. 73.9 F.
Mon Sep 3 11:08:05 2018 85.0 F. 73.9 F.
Mon Sep 3 12:08:05 2018 87.0 F. 73.9 F.
Mon Sep 3 13:08:05 2018 87.0 F. 73.9 F.
Mon Sep 3 14:08:05 2018 89.0 F. 73.9 F.
Mon Sep 3 15:08:04 2018 88.0 F. 73.0 F.
Mon Sep 3 16:08:05 2018 90.0 F. 73.0 F.
Mon Sep 3 17:08:05 2018 90.0 F. 73.0 F.
Mon Sep 3 18:08:05 2018 87.0 F. 73.0 F.
Mon Sep 3 19:08:05 2018 82.0 F. 72.0 F.
Mon Sep 3 20:08:06 2018 75.0 F. 73.0 F.
Mon Sep 3 21:08:05 2018 75.0 F. 73.0 F.
Mon Sep 3 22:08:05 2018 74.0 F. 72.0 F.
Mon Sep 3 23:08:04 2018 71.0 F. 71.1 F.
Tue Sep 4 00:08:05 2018 71.0 F. 70.0 F.
Tue Sep 4 01:08:04 2018 72.0 F. 71.1 F.
Tue Sep 4 02:08:04 2018 71.0 F. 70.0 F.
Tue Sep 4 03:08:04 2018 69.0 F. 69.1 F.
Tue Sep 4 04:08:05 2018 70.0 F. 69.1 F.
Tue Sep 4 05:08:05 2018 70.0 F. 68.0 F.
Tue Sep 4 06:08:05 2018 70.0 F. 68.0 F.
Tue Sep 4 07:08:05 2018 69.0 F. 68.0 F.
Tue Sep 4 08:08:05 2018 74.0 F. 71.1 F.
Tue Sep 4 09:08:05 2018 79.0 F. 72.0 F.
Tue Sep 4 10:08:30 2018 82.0 F. 73.0 F.
Tue Sep 4 11:08:05 2018 85.0 F. 73.9 F.
Tue Sep 4 12:08:04 2018 85.0 F. 73.9 F.
Tue Sep 4 13:08:05 2018 88.0 F. 73.4 F.
Tue Sep 4 14:08:05 2018 88.0 F. 73.4 F.
Tue Sep 4 15:08:05 2018 88.0 F. 73.4 F.
Tue Sep 4 16:08:05 2018 86.0 F. 72.0 F.
Tue Sep 4 17:08:05 2018 86.0 F. 73.0 F.
Tue Sep 4 18:08:05 2018 86.0 F. 73.0 F.
Tue Sep 4 19:08:05 2018 86.0 F. 73.4 F.
Tue Sep 4 20:08:05 2018 86.0 F. 73.4 F.
Tue Sep 4 21:08:04 2018 75.0 F. 73.4 F.
Tue Sep 4 22:08:05 2018 75.0 F. 73.4 F.
Tue Sep 4 23:08:05 2018 73.0 F. 73.0 F.
Wed Sep 5 00:08:04 2018 72.0 F. 71.1 F.
Wed Sep 5 01:08:04 2018 71.0 F. 71.1 F.
Wed Sep 5 02:08:05 2018 71.0 F. 71.1 F.
Wed Sep 5 03:08:04 2018 68.0 F. 68.0 F.
Wed Sep 5 04:08:05 2018 67.0 F. 66.9 F.
Wed Sep 5 05:08:05 2018 68.0 F. 68.0 F.
Wed Sep 5 06:08:05 2018 68.0 F. 68.0 F.
Wed Sep 5 07:08:05 2018 70.0 F. 68.0 F.
Wed Sep 5 08:08:05 2018 75.0 F. 71.6 F.
Wed Sep 5 09:08:05 2018 79.0 F. 72.0 F.
Wed Sep 5 10:08:05 2018 82.0 F. 73.4 F.
Wed Sep 5 11:08:05 2018 85.0 F. 73.9 F.
Wed Sep 5 12:08:04 2018 85.0 F. 73.9 F.
Wed Sep 5 13:08:05 2018 87.0 F. 73.9 F.
Wed Sep 5 14:08:05 2018 88.0 F. 73.0 F.
Wed Sep 5 15:08:05 2018 89.0 F. 71.1 F.
Wed Sep 5 16:08:06 2018 86.0 F. 72.0 F.
Wed Sep 5 17:08:04 2018 86.0 F. 73.0 F.
Wed Sep 5 18:09:00 2018
Wed Sep 5 19:08:04 2018 81.0 F. 75.0 F.
Wed Sep 5 20:08:05 2018 76.0 F. 73.9 F.
Wed Sep 5 21:08:05 2018 73.0 F. 72.0 F.
Wed Sep 5 22:08:05 2018 72.0 F. 71.1 F.
Wed Sep 5 23:08:04 2018 72.0 F. 70.0 F.
Thu Sep 6 00:08:04 2018 73.0 F. 71.1 F.
Thu Sep 6 01:08:05 2018 74.0 F. 71.1 F.
Thu Sep 6 02:08:04 2018 73.0 F. 70.0 F.
Thu Sep 6 03:08:05 2018 72.0 F. 69.1 F.
Thu Sep 6 04:08:04 2018 69.0 F. 68.0 F.
Thu Sep 6 05:08:04 2018 69.0 F. 68.0 F.
Thu Sep 6 06:08:05 2018 71.0 F. 70.0 F.
Thu Sep 6 07:08:05 2018 71.0 F. 71.1 F.
Thu Sep 6 08:08:04 2018 73.0 F. 71.1 F.
Thu Sep 6 09:08:04 2018 74.0 F. 71.1 F.
Thu Sep 6 10:08:04 2018 78.0 F. 72.0 F.
Thu Sep 6 11:08:04 2018 81.0 F. 72.0 F.
Thu Sep 6 12:08:05 2018 76.0 F. 69.1 F.
Thu Sep 6 13:08:04 2018 76.0 F. 73.9 F.
Thu Sep 6 14:08:04 2018 84.0 F. 75.0 F.
Thu Sep 6 15:08:04 2018 87.0 F. 73.0 F.
Thu Sep 6 16:08:05 2018 88.0 F. 73.9 F.
Thu Sep 6 17:08:10 2018 84.0 F. 73.0 F.
Thu Sep 6 18:08:04 2018 79.0 F. 72.0 F.
Thu Sep 6 19:08:06 2018 72.0 F. 71.1 F.
Thu Sep 6 20:08:04 2018 72.0 F. 72.0 F.
Thu Sep 6 21:08:04 2018 73.0 F. 72.0 F.
Thu Sep 6 22:08:04 2018 73.0 F. 72.0 F.
Thu Sep 6 23:08:05 2018 72.0 F. 72.0 F.
Fri Sep 7 00:08:04 2018 72.0 F. 72.0 F.
Fri Sep 7 01:08:04 2018 72.0 F. 71.1 F.
Fri Sep 7 02:08:04 2018 72.0 F. 71.1 F.
Fri Sep 7 03:08:05 2018 72.0 F. 71.1 F.
Fri Sep 7 04:08:05 2018 72.0 F. 71.1 F.
Fri Sep 7 05:08:05 2018 71.0 F. 70.0 F.
Fri Sep 7 06:08:05 2018 71.0 F. 71.1 F.
Fri Sep 7 07:08:05 2018 71.0 F. 71.1 F.
Fri Sep 7 08:08:05 2018 72.0 F. 71.1 F.
Fri Sep 7 09:08:04 2018 75.0 F. 72.0 F.
Fri Sep 7 10:08:04 2018 76.0 F. 73.0 F.
Fri Sep 7 11:08:05 2018 76.0 F. 73.0 F.
Fri Sep 7 12:08:05 2018 81.0 F. 73.9 F.
Fri Sep 7 13:09:00 2018
Fri Sep 7 14:09:00 2018
Fri Sep 7 15:08:10 2018 85.0 F. 73.9 F.
Fri Sep 7 16:08:04 2018 86.0 F. 73.9 F.
Fri Sep 7 17:08:05 2018 87.0 F. 75.0 F.
Fri Sep 7 18:08:05 2018 79.0 F. 70.0 F.
Fri Sep 7 19:08:05 2018 72.0 F. 70.0 F.
Fri Sep 7 20:08:05 2018 72.0 F. 70.0 F.
Fri Sep 7 21:08:05 2018 73.0 F. 72.0 F.
Fri Sep 7 22:08:04 2018 73.0 F. 71.1 F.
Fri Sep 7 23:08:05 2018 72.0 F. 70.0 F.
Sat Sep 8 00:08:05 2018 72.0 F. 70.0 F.
Sat Sep 8 01:08:05 2018 71.0 F. 71.1 F.
Sat Sep 8 02:08:04 2018 71.0 F. 71.1 F.
Sat Sep 8 03:08:04 2018 71.0 F. 71.1 F.
Sat Sep 8 04:08:04 2018 71.0 F. 70.0 F.
Sat Sep 8 05:08:04 2018 71.0 F. 71.1 F.
Sat Sep 8 06:08:05 2018 71.0 F. 71.1 F.
Sat Sep 8 07:08:04 2018 72.0 F. 72.0 F.
Sat Sep 8 08:08:05 2018 72.0 F. 72.0 F.
Sat Sep 8 09:08:04 2018 72.0 F. 72.0 F.
Sat Sep 8 10:08:04 2018 73.0 F. 73.0 F.
Sat Sep 8 11:08:04 2018 74.0 F. 73.0 F.
Sat Sep 8 12:08:04 2018 75.0 F. 73.9 F.
Sat Sep 8 13:08:05 2018 74.0 F. 71.1 F.
Sat Sep 8 14:08:05 2018 69.0 F. 66.9 F.
Sat Sep 8 15:08:05 2018 69.0 F. 66.9 F.
Sat Sep 8 16:08:05 2018 68.0 F. 66.9 F.
Sat Sep 8 17:08:04 2018 68.0 F. 66.0 F.
Sat Sep 8 18:08:04 2018 68.0 F. 64.9 F.
Sat Sep 8 19:08:04 2018 66.0 F. 64.9 F.
Sat Sep 8 20:08:04 2018 65.0 F. 64.0 F.
Sat Sep 8 21:08:05 2018 64.0 F. 63.0 F.
Sat Sep 8 22:08:10 2018 64.0 F. 63.0 F.
Sat Sep 8 23:08:05 2018 64.0 F. 63.0 F.
Sun Sep 9 00:08:05 2018 63.0 F. 62.1 F.
Sun Sep 9 01:08:05 2018 63.0 F. 62.1 F.
Sun Sep 9 02:08:04 2018 62.0 F. 61.0 F.
Sun Sep 9 03:08:05 2018 62.0 F. 61.0 F.
Sun Sep 9 04:08:04 2018 62.0 F. 61.0 F.
Sun Sep 9 05:08:04 2018 62.0 F. 60.1 F.
Sun Sep 9 06:08:05 2018 61.0 F. 60.1 F.
Sun Sep 9 07:08:05 2018 61.0 F. 60.1 F.
Sun Sep 9 08:08:05 2018 61.0 F. 60.1 F.
Sun Sep 9 09:08:05 2018 61.0 F. 60.1 F.
Sun Sep 9 10:08:04 2018 63.0 F. 60.1 F.
Sun Sep 9 11:08:05 2018 63.0 F. 60.1 F.
Sun Sep 9 12:08:04 2018 65.0 F. 59.0 F.
Sun Sep 9 13:08:04 2018 65.0 F. 60.1 F.
Sun Sep 9 14:08:04 2018 65.0 F. 60.1 F.
Sun Sep 9 15:08:05 2018 64.0 F. 59.0 F.
Sun Sep 9 16:08:04 2018 64.0 F. 59.0 F.
Sun Sep 9 17:08:04 2018 64.0 F. 59.0 F.
Sun Sep 9 18:08:05 2018 64.0 F. 60.1 F.
Sun Sep 9 19:08:05 2018 64.0 F. 59.0 F.
Sun Sep 9 20:08:04 2018 63.0 F. 59.0 F.
Sun Sep 9 21:08:05 2018 63.0 F. 60.1 F.
Sun Sep 9 22:08:04 2018 63.0 F. 60.1 F.
Sun Sep 9 23:08:04 2018 63.0 F. 59.0 F.
Mon Sep 10 00:08:05 2018 62.0 F. 59.0 F.
Mon Sep 10 01:08:05 2018 62.0 F. 59.0 F.
Mon Sep 10 02:08:04 2018 60.0 F. 57.9 F.
Mon Sep 10 03:08:04 2018 62.0 F. 60.1 F.
Mon Sep 10 04:08:05 2018 62.0 F. 60.1 F.
Mon Sep 10 05:08:04 2018 61.0 F. 60.1 F.
Mon Sep 10 06:08:04 2018 58.0 F. 57.0 F.
Mon Sep 10 07:08:04 2018 57.0 F. 57.0 F.
Mon Sep 10 08:08:05 2018 61.0 F. 59.0 F.
Mon Sep 10 09:09:00 2018
Mon Sep 10 10:08:05 2018 68.0 F. 59.0 F.
Mon Sep 10 11:08:09 2018 70.0 F. 60.1 F.
Mon Sep 10 12:08:04 2018 73.0 F. 61.0 F.
Mon Sep 10 13:08:05 2018 74.0 F. 60.1 F.
Mon Sep 10 14:08:04 2018 76.0 F. 61.0 F.
Mon Sep 10 15:08:04 2018 77.0 F. 62.1 F.
Mon Sep 10 16:08:04 2018 78.0 F. 62.1 F.
Mon Sep 10 17:08:04 2018 75.0 F. 63.0 F.
Mon Sep 10 18:08:04 2018 73.0 F. 63.0 F.
Mon Sep 10 19:08:04 2018 73.0 F. 63.0 F.
Mon Sep 10 20:08:05 2018 65.0 F. 63.0 F.
Mon Sep 10 21:08:04 2018 65.0 F. 63.0 F.
Mon Sep 10 22:08:04 2018 62.0 F. 62.1 F.
Mon Sep 10 23:08:04 2018 62.0 F. 61.0 F.
Tue Sep 11 00:08:04 2018 59.0 F. 59.0 F.
Tue Sep 11 01:08:05 2018 58.0 F. 57.9 F.
Tue Sep 11 02:08:04 2018 58.0 F. 57.9 F.
Tue Sep 11 03:08:05 2018 56.0 F. 55.9 F.
Tue Sep 11 04:08:05 2018 57.0 F. 57.0 F.
Tue Sep 11 05:08:05 2018 57.0 F. 57.0 F.
Tue Sep 11 06:08:04 2018 56.0 F. 55.9 F.
Tue Sep 11 07:08:05 2018 56.0 F. 55.9 F.
Tue Sep 11 08:08:05 2018 60.0 F. 60.1 F.
Tue Sep 11 09:08:04 2018 65.0 F. 63.0 F.
Tue Sep 11 10:08:05 2018 69.0 F. 64.0 F.
Tue Sep 11 11:08:05 2018 74.0 F. 64.9 F.
Tue Sep 11 12:08:05 2018 76.0 F. 63.0 F.
Tue Sep 11 13:08:05 2018 78.0 F. 63.0 F.
Tue Sep 11 14:08:04 2018 77.0 F. 63.0 F.
Tue Sep 11 15:08:04 2018 78.0 F. 63.0 F.
Tue Sep 11 16:08:04 2018 79.0 F. 64.0 F.
Tue Sep 11 17:08:04 2018 78.0 F. 63.0 F.
Tue Sep 11 18:08:05 2018 76.0 F. 63.0 F.
Tue Sep 11 19:08:04 2018 71.0 F. 64.0 F.
Tue Sep 11 20:08:05 2018 66.0 F. 64.0 F.
Tue Sep 11 21:08:05 2018 64.0 F. 63.0 F.
Tue Sep 11 22:08:04 2018 63.0 F. 62.1 F.
Tue Sep 11 23:08:04 2018 62.0 F. 61.0 F.
Wed Sep 12 00:08:05 2018 62.0 F. 61.0 F.
Wed Sep 12 01:08:04 2018 62.0 F. 60.1 F.
Wed Sep 12 02:08:05 2018 60.0 F. 59.0 F.
Wed Sep 12 03:08:04 2018 58.0 F. 57.9 F.
Wed Sep 12 04:08:04 2018 57.0 F. 57.0 F.
Wed Sep 12 05:08:05 2018 57.0 F. 55.9 F.
Wed Sep 12 06:08:05 2018 57.0 F. 57.0 F.
Wed Sep 12 07:08:05 2018 58.0 F. 57.9 F.
Wed Sep 12 08:08:04 2018 61.0 F. 61.0 F.
Wed Sep 12 09:08:05 2018 67.0 F. 63.0 F.
Wed Sep 12 10:08:05 2018 72.0 F. 62.1 F.
Wed Sep 12 11:08:05 2018 73.0 F. 61.0 F.
Wed Sep 12 12:08:04 2018 74.0 F. 61.0 F.
Wed Sep 12 13:08:05 2018 75.0 F. 62.1 F.
Wed Sep 12 14:08:04 2018 73.0 F. 61.0 F.
Wed Sep 12 15:08:04 2018 75.0 F. 61.0 F.
Wed Sep 12 16:08:05 2018 74.0 F. 62.1 F.
Wed Sep 12 17:08:05 2018 73.0 F. 63.0 F.
Wed Sep 12 18:08:05 2018 71.0 F. 64.0 F.
Wed Sep 12 19:08:05 2018 69.0 F. 64.9 F.
Wed Sep 12 20:08:05 2018 68.0 F. 64.0 F.
Wed Sep 12 21:08:05 2018 64.0 F. 63.0 F.
Wed Sep 12 22:08:05 2018 65.0 F. 64.0 F.
Wed Sep 12 23:08:05 2018 64.0 F. 64.0 F.
Thu Sep 13 00:08:05 2018 63.0 F. 63.0 F.
Thu Sep 13 01:08:05 2018 63.0 F. 63.0 F.
Thu Sep 13 02:08:05 2018 64.0 F. 64.0 F.
Thu Sep 13 03:08:05 2018 64.0 F. 64.0 F.
Thu Sep 13 04:08:04 2018 64.0 F. 64.0 F.
Thu Sep 13 05:08:05 2018 63.0 F. 63.0 F.
Thu Sep 13 06:08:05 2018 63.0 F. 63.0 F.
Thu Sep 13 07:08:05 2018 64.0 F. 63.0 F.
Thu Sep 13 08:08:04 2018 66.0 F. 63.0 F.
Thu Sep 13 09:08:04 2018 67.0 F. 64.0 F.
Thu Sep 13 10:08:05 2018 70.0 F. 64.9 F.
Thu Sep 13 11:08:05 2018 74.0 F. 66.0 F.
Thu Sep 13 12:08:05 2018 79.0 F. 66.9 F.
Thu Sep 13 13:08:05 2018 80.0 F. 66.0 F.
Thu Sep 13 14:08:05 2018 82.0 F. 64.0 F.
Thu Sep 13 15:08:05 2018 82.0 F. 63.0 F.
Thu Sep 13 16:08:05 2018 84.0 F. 64.0 F.
Thu Sep 13 17:08:05 2018 83.0 F. 64.0 F.
Thu Sep 13 18:08:05 2018 83.0 F. 64.9 F.
Thu Sep 13 19:08:05 2018 77.0 F. 69.1 F.
Thu Sep 13 20:08:05 2018 70.0 F. 66.9 F.
Thu Sep 13 21:08:05 2018 69.0 F. 66.9 F.
Thu Sep 13 22:08:04 2018 67.0 F. 64.9 F.
Thu Sep 13 23:08:05 2018 67.0 F. 66.0 F.
Fri Sep 14 00:08:04 2018 67.0 F. 66.0 F.
Fri Sep 14 01:08:05 2018 65.0 F. 64.9 F.
Fri Sep 14 02:08:04 2018 65.0 F. 64.9 F.
Fri Sep 14 03:08:05 2018 64.0 F. 63.0 F.
Fri Sep 14 04:08:04 2018 64.0 F. 64.0 F.
Fri Sep 14 05:08:05 2018 64.0 F. 64.0 F.
Fri Sep 14 06:08:05 2018 62.0 F. 62.1 F.
Fri Sep 14 07:08:05 2018 63.0 F. 63.0 F.
Fri Sep 14 08:08:04 2018 68.0 F. 66.0 F.
Fri Sep 14 09:08:05 2018 73.0 F. 68.0 F.
Fri Sep 14 10:08:05 2018 78.0 F. 68.0 F.
Fri Sep 14 11:08:05 2018 83.0 F. 68.0 F.
Fri Sep 14 12:08:05 2018 85.0 F. 68.0 F.
Fri Sep 14 13:08:05 2018 86.0 F. 68.0 F.
Fri Sep 14 14:08:05 2018 87.0 F. 68.0 F.
Fri Sep 14 15:08:05 2018 87.0 F. 68.0 F.
Fri Sep 14 16:08:05 2018 88.0 F. 68.0 F.
Fri Sep 14 17:08:05 2018 87.0 F. 68.0 F.
Fri Sep 14 18:08:05 2018 86.0 F. 69.1 F.
Fri Sep 14 19:08:05 2018 79.0 F. 70.0 F.
Fri Sep 14 20:08:05 2018 72.0 F. 70.0 F.
Fri Sep 14 21:08:05 2018 71.0 F. 70.0 F.
Fri Sep 14 22:08:04 2018 70.0 F. 69.1 F.
Fri Sep 14 23:08:05 2018 70.0 F. 69.1 F.
Sat Sep 15 00:08:05 2018 68.0 F. 66.9 F.
Sat Sep 15 01:08:04 2018 67.0 F. 66.9 F.
Sat Sep 15 02:08:05 2018 66.0 F. 66.0 F.
Sat Sep 15 03:08:05 2018 67.0 F. 66.9 F.
Sat Sep 15 04:08:05 2018 64.0 F. 64.0 F.
Sat Sep 15 05:08:05 2018 65.0 F. 64.9 F.
Sat Sep 15 06:08:05 2018 64.0 F. 64.0 F.
Sat Sep 15 07:08:05 2018 65.0 F. 64.9 F.
Sat Sep 15 08:08:04 2018 69.0 F. 68.0 F.
Sat Sep 15 09:08:05 2018 75.0 F. 69.1 F.
Sat Sep 15 10:08:05 2018 80.0 F. 70.0 F.
Sat Sep 15 11:08:05 2018 83.0 F. 69.1 F.
Sat Sep 15 12:08:05 2018 86.0 F. 66.9 F.
Sat Sep 15 13:08:05 2018 87.0 F. 62.1 F.
Sat Sep 15 14:08:05 2018 87.0 F. 60.1 F.
Sat Sep 15 15:08:05 2018 88.0 F. 63.0 F.
Sat Sep 15 16:08:06 2018 88.0 F. 62.1 F.
Sat Sep 15 17:08:05 2018 87.0 F. 64.0 F.
Sat Sep 15 18:08:05 2018 86.0 F. 66.9 F.
Sat Sep 15 19:08:06 2018 79.0 F. 66.9 F.
Sat Sep 15 20:08:05 2018 73.0 F. 66.9 F.
Sat Sep 15 21:08:22 2018
Sat Sep 15 22:08:55 2018
Sat Sep 15 23:08:40 2018
Sun Sep 16 00:08:28 2018 68.0 F. 66.0 F.
Sun Sep 16 01:08:40 2018
Sun Sep 16 02:08:39 2018
Sun Sep 16 03:08:40 2018
Sun Sep 16 04:08:40 2018
Sun Sep 16 05:08:40 2018
Sun Sep 16 06:08:40 2018
Sun Sep 16 07:08:40 2018
Sun Sep 16 08:08:40 2018
Sun Sep 16 09:08:05 2018 75.0 F. 70.0 F.
Sun Sep 16 10:08:39 2018
Sun Sep 16 11:08:05 2018 84.0 F. 72.0 F.
Sun Sep 16 12:08:06 2018 87.0 F. 72.0 F.
Sun Sep 16 13:08:04 2018 88.0 F. 72.0 F.
Sun Sep 16 14:08:05 2018 88.0 F. 70.0 F.
Sun Sep 16 15:08:05 2018 88.0 F. 71.1 F.
Sun Sep 16 16:08:05 2018 86.0 F. 70.0 F.
Sun Sep 16 17:08:05 2018 86.0 F. 70.0 F.
Sun Sep 16 18:08:05 2018 86.0 F. 72.0 F.
Sun Sep 16 19:08:05 2018 80.0 F. 72.0 F.
Sun Sep 16 20:08:05 2018 74.0 F. 71.1 F.
Sun Sep 16 21:08:05 2018 73.0 F. 71.1 F.
Sun Sep 16 22:08:05 2018 70.0 F. 69.1 F.
Sun Sep 16 23:08:05 2018 69.0 F. 69.1 F.
Mon Sep 17 00:08:04 2018 67.0 F. 66.9 F.
Mon Sep 17 01:08:06 2018 67.0 F. 66.9 F.
Mon Sep 17 02:08:05 2018 66.0 F. 64.9 F.
Mon Sep 17 03:08:05 2018 66.0 F. 66.0 F.
Mon Sep 17 04:08:05 2018 65.0 F. 64.9 F.
Mon Sep 17 05:08:05 2018 64.0 F. 64.0 F.
Mon Sep 17 06:08:05 2018 64.0 F. 64.0 F.
Mon Sep 17 07:08:04 2018 63.0 F. 63.0 F.
Mon Sep 17 08:08:05 2018 67.0 F. 66.9 F.
Mon Sep 17 09:08:05 2018 74.0 F. 71.1 F.
Mon Sep 17 10:08:05 2018 74.0 F. 71.1 F.
Mon Sep 17 11:08:04 2018 82.0 F. 71.1 F.
Mon Sep 17 12:08:05 2018 86.0 F. 71.1 F.
Mon Sep 17 13:08:05 2018 88.0 F. 71.1 F.
Mon Sep 17 14:08:05 2018 87.0 F. 71.1 F.
Mon Sep 17 15:08:05 2018 90.0 F. 70.0 F.
Mon Sep 17 16:08:07 2018 90.0 F. 70.0 F.
Mon Sep 17 17:08:05 2018 88.0 F. 69.1 F.
Mon Sep 17 18:08:05 2018 86.0 F. 71.1 F.
Mon Sep 17 19:08:05 2018 82.0 F. 73.0 F.
Mon Sep 17 20:08:05 2018 76.0 F. 73.0 F.
Mon Sep 17 21:08:05 2018 74.0 F. 72.0 F.
Mon Sep 17 22:08:05 2018 74.0 F. 72.0 F.
Mon Sep 17 23:08:05 2018 74.0 F. 72.0 F.
Tue Sep 18 00:08:04 2018 73.0 F. 71.1 F.
Tue Sep 18 01:08:05 2018 70.0 F. 70.0 F.
Tue Sep 18 02:08:05 2018 70.0 F. 70.0 F.
Tue Sep 18 03:08:05 2018 69.0 F. 68.0 F.
Tue Sep 18 04:08:05 2018 68.0 F. 66.9 F.
Tue Sep 18 05:08:05 2018 67.0 F. 66.9 F.
Tue Sep 18 06:08:05 2018 67.0 F. 66.9 F.
Tue Sep 18 07:08:05 2018 67.0 F. 66.9 F.
Tue Sep 18 08:08:05 2018 70.0 F. 69.1 F.
Tue Sep 18 09:08:05 2018 77.0 F. 71.1 F.
Tue Sep 18 10:08:05 2018 82.0 F. 72.0 F.
Tue Sep 18 11:08:05 2018 86.0 F. 73.0 F.
Tue Sep 18 12:08:05 2018 88.0 F. 71.1 F.
Tue Sep 18 13:08:05 2018 88.0 F. 71.1 F.
Tue Sep 18 14:08:05 2018 89.0 F. 70.0 F.
Tue Sep 18 15:08:04 2018 89.0 F. 71.1 F.
Tue Sep 18 16:08:05 2018 74.0 F. 66.9 F.
Tue Sep 18 17:08:05 2018 75.0 F. 72.0 F.
Tue Sep 18 18:08:17 2018 80.0 F. 72.0 F.
Tue Sep 18 19:08:40 2018
Tue Sep 18 20:08:40 2018
Tue Sep 18 21:08:05 2018 71.0 F. 70.0 F.
Tue Sep 18 22:08:05 2018 71.0 F. 70.0 F.
Tue Sep 18 23:08:05 2018 71.0 F. 70.0 F.
Wed Sep 19 00:08:05 2018 68.0 F. 68.0 F.
Wed Sep 19 01:08:05 2018 70.0 F. 70.0 F.
Wed Sep 19 02:08:04 2018 70.0 F. 69.1 F.
Wed Sep 19 03:08:05 2018 67.0 F. 66.9 F.
Wed Sep 19 04:08:05 2018 67.0 F. 66.9 F.
Wed Sep 19 05:08:04 2018 67.0 F. 66.9 F.
Wed Sep 19 06:08:05 2018 66.0 F. 66.0 F.
Wed Sep 19 07:08:05 2018 66.0 F. 66.0 F.
Wed Sep 19 08:08:04 2018 73.0 F. 72.0 F.
Wed Sep 19 09:08:04 2018 73.0 F. 72.0 F.
Wed Sep 19 10:08:05 2018 73.0 F. 73.0 F.
Wed Sep 19 11:08:05 2018 73.0 F. 73.0 F.
Wed Sep 19 12:08:05 2018 75.0 F. 73.0 F.
Wed Sep 19 13:08:05 2018 76.0 F. 73.0 F.
Wed Sep 19 14:08:06 2018 79.0 F. 73.9 F.
Wed Sep 19 15:08:10 2018 83.0 F. 75.9 F.
Wed Sep 19 16:08:05 2018 84.0 F. 75.9 F.
Wed Sep 19 17:08:40 2018
Wed Sep 19 18:08:51 2018
Wed Sep 19 19:09:00 2018
Wed Sep 19 20:09:00 2018
Wed Sep 19 21:08:31 2018 73.0 F. 73.0 F.
Wed Sep 19 22:08:15 2018 71.0 F. 71.1 F.
Wed Sep 19 23:08:15 2018 73.0 F. 73.0 F.
Thu Sep 20 00:08:14 2018 72.0 F. 72.0 F.
Thu Sep 20 01:08:16 2018 72.0 F. 72.0 F.
Thu Sep 20 02:08:14 2018 72.0 F. 71.1 F.
Thu Sep 20 03:08:14 2018 71.0 F. 71.1 F.
Thu Sep 20 04:08:15 2018 70.0 F. 70.0 F.
Thu Sep 20 05:08:15 2018 68.0 F. 68.0 F.
Thu Sep 20 06:08:15 2018 69.0 F. 69.1 F.
Thu Sep 20 07:08:14 2018 69.0 F. 68.0 F.
Thu Sep 20 08:08:15 2018 74.0 F. 73.0 F.
Thu Sep 20 09:09:00 2018
Thu Sep 20 10:09:00 2018
Thu Sep 20 11:08:05 2018 86.0 F. 73.9 F.
Thu Sep 20 12:08:05 2018 88.0 F. 72.0 F.
Thu Sep 20 13:08:05 2018 89.0 F. 73.0 F.
Thu Sep 20 14:08:05 2018 89.0 F. 73.0 F.
Thu Sep 20 15:08:05 2018 90.0 F. 73.0 F.
Thu Sep 20 16:08:05 2018 90.0 F. 72.0 F.
Thu Sep 20 17:08:04 2018 89.0 F. 71.1 F.
Thu Sep 20 18:08:05 2018 87.0 F. 71.1 F.
Thu Sep 20 19:08:06 2018 81.0 F. 71.1 F.
Thu Sep 20 20:08:06 2018 76.0 F. 71.1 F.